Time;durP1;ratioP1;P1;durP2;ratioP2;P2;SDS_P1;SDS_P2;PMS_P1;PMS_P2;Temp;Humidity;BMP_temperature;BMP_pressure;BME280_temperature;BME280_humidity;BME280_pressure;Samples;Min_cycle;Max_cycle;Signal;HPM_P1;HPM_P2
2023/04/16 00:01:13;;;;;;;19.00;6.25;;;10.50;99.90;;;;;;5003446;28;20052;-82
2023/04/16 00:03:39;;;;;;;14.93;6.05;;;10.40;99.90;;;;;;4987808;28;20556;-82
2023/04/16 00:06:04;;;;;;;19.23;6.82;;;10.40;99.90;;;;;;4995408;28;20037;-82
2023/04/16 00:08:42;;;;;;;23.40;6.55;;;10.50;99.90;;;;;;4981806;28;20046;-82
2023/04/16 00:11:07;;;;;;;17.00;6.15;;;10.50;99.90;;;;;;4996277;28;20112;-82
2023/04/16 00:13:33;;;;;;;18.67;6.75;;;10.60;99.90;;;;;;4990758;28;20038;-82
2023/04/16 00:15:58;;;;;;;24.05;6.82;;;10.60;99.90;;;;;;4992555;28;20077;-82
2023/04/16 00:18:25;;;;;;;22.50;7.32;;;10.60;99.90;;;;;;4980983;28;20033;-82
2023/04/16 00:20:51;;;;;;;23.58;6.75;;;10.60;99.90;;;;;;4993125;28;20021;-82
2023/04/16 00:23:16;;;;;;;19.40;7.13;;;10.50;99.90;;;;;;4991941;28;20057;-82
2023/04/16 00:25:42;;;;;;;21.00;7.00;;;10.60;99.90;;;;;;4992142;28;20057;-82
2023/04/16 00:28:08;;;;;;;24.88;7.68;;;10.50;99.90;;;;;;4981891;28;20251;-82
2023/04/16 00:30:34;;;;;;;25.85;7.93;;;10.50;99.90;;;;;;4971917;28;20030;-81
2023/04/16 00:32:59;;;;;;;19.92;6.60;;;10.40;99.90;;;;;;4971367;28;20474;-82
2023/04/16 00:35:25;;;;;;;25.75;8.05;;;10.50;99.90;;;;;;4986753;28;20064;-82
2023/04/16 00:37:51;;;;;;;25.75;7.25;;;10.50;99.90;;;;;;4988122;28;20029;-82
2023/04/16 00:40:19;;;;;;;23.60;7.95;;;10.40;99.90;;;;;;4992363;28;20535;-82
2023/04/16 00:42:45;;;;;;;22.85;7.30;;;10.40;99.90;;;;;;4979594;28;20021;-82
2023/04/16 00:45:10;;;;;;;27.75;7.65;;;10.50;99.90;;;;;;4989538;28;20492;-82
2023/04/16 00:47:37;;;;;;;28.90;8.80;;;10.50;99.90;;;;;;4981146;28;20037;-82
2023/04/16 00:50:03;;;;;;;24.52;7.65;;;10.50;99.90;;;;;;4976101;28;20088;-82
2023/04/16 00:52:33;;;;;;;27.25;9.05;;;10.50;99.90;;;;;;4973662;28;20042;-82
2023/04/16 00:55:02;;;;;;;27.85;8.90;;;10.50;99.90;;;;;;4994579;28;20508;-81
2023/04/16 00:57:28;;;;;;;25.05;8.90;;;10.40;99.90;;;;;;4991937;28;20057;-81
2023/04/16 00:59:54;;;;;;;25.63;9.45;;;10.40;99.90;;;;;;4983884;28;20171;-81
2023/04/16 01:02:20;;;;;;;32.03;9.18;;;10.50;99.90;;;;;;4965785;28;20136;-81
2023/04/16 01:04:48;;;;;;;31.20;10.07;;;10.50;99.90;;;;;;4976456;28;20025;-81
2023/04/16 01:07:13;;;;;;;28.52;8.55;;;10.50;99.90;;;;;;4977002;28;20163;-82
2023/04/16 01:09:39;;;;;;;30.48;9.38;;;10.50;99.90;;;;;;4991739;28;20091;-82
2023/04/16 01:12:04;;;;;;;32.67;9.27;;;10.50;99.90;;;;;;4976030;28;20041;-82
2023/04/16 01:14:35;;;;;;;27.35;9.20;;;10.50;99.90;;;;;;4975172;28;20030;-81
2023/04/16 01:17:01;;;;;;;38.10;10.13;;;10.50;99.90;;;;;;4976330;28;20382;-82
2023/04/16 01:19:29;;;;;;;33.97;10.43;;;10.50;99.90;;;;;;4974509;28;20686;-82
2023/04/16 01:21:55;;;;;;;43.70;11.30;;;10.60;99.90;;;;;;4993555;28;20030;-82
2023/04/16 01:24:21;;;;;;;34.35;10.88;;;10.50;99.90;;;;;;4976566;28;20055;-82
2023/04/16 01:26:47;;;;;;;32.90;11.07;;;10.60;99.90;;;;;;4976645;28;20303;-82
2023/04/16 01:29:15;;;;;;;40.20;11.80;;;10.50;99.90;;;;;;4976918;28;20037;-82
2023/04/16 01:31:42;;;;;;;39.75;10.73;;;10.50;99.90;;;;;;4977040;28;20498;-82
2023/04/16 01:34:08;;;;;;;27.58;10.90;;;10.50;99.90;;;;;;4996420;28;20411;-81
2023/04/16 01:36:34;;;;;;;33.75;10.93;;;10.50;99.90;;;;;;4995051;28;20030;-81
2023/04/16 01:38:59;;;;;;;35.35;12.48;;;10.50;99.90;;;;;;4996127;28;20064;-82
2023/04/16 01:41:25;;;;;;;29.05;10.80;;;10.60;99.90;;;;;;4977671;28;20478;-82
2023/04/16 01:43:51;;;;;;;32.28;12.18;;;10.60;99.90;;;;;;4977563;28;20052;-81
2023/04/16 01:46:26;;;;;;;31.27;11.40;;;10.50;99.90;;;;;;4995635;28;20029;-82
2023/04/16 01:48:53;;;;;;;38.53;11.60;;;10.50;99.90;;;;;;4967346;28;20095;-81
2023/04/16 01:51:19;;;;;;;36.05;12.50;;;10.50;99.90;;;;;;4999302;28;20054;-81
2023/04/16 01:53:45;;;;;;;39.78;11.85;;;10.50;99.90;;;;;;4978456;28;20280;-81
2023/04/16 01:56:11;;;;;;;27.45;11.75;;;10.50;99.90;;;;;;5000875;28;20356;-81
2023/04/16 01:58:37;;;;;;;43.63;11.32;;;10.40;99.90;;;;;;4981368;28;20202;-82
2023/04/16 02:01:04;;;;;;;38.45;12.13;;;10.50;99.90;;;;;;4979172;28;20145;-82
2023/04/16 02:03:30;;;;;;;32.35;11.40;;;10.60;99.90;;;;;;4998960;28;20030;-82
2023/04/16 02:05:56;;;;;;;33.83;12.57;;;10.60;99.90;;;;;;4998263;28;20537;-82
2023/04/16 02:08:22;;;;;;;37.35;11.90;;;10.60;99.90;;;;;;4981343;28;20084;-81
2023/04/16 02:10:49;;;;;;;38.17;11.88;;;10.60;99.90;;;;;;4997756;28;20437;-82
2023/04/16 02:13:15;;;;;;;35.65;12.20;;;10.70;99.90;;;;;;4981359;28;20550;-81
2023/04/16 02:15:48;;;;;;;42.42;13.32;;;10.60;99.90;;;;;;4982558;28;20117;-82
2023/04/16 02:18:14;;;;;;;39.08;12.13;;;10.60;99.90;;;;;;4998005;28;20469;-81
2023/04/16 02:20:41;;;;;;;34.92;11.85;;;10.50;99.90;;;;;;5000489;28;20018;-81
2023/04/16 02:23:07;;;;;;;36.28;12.07;;;10.60;99.90;;;;;;5000032;28;20103;-82
2023/04/16 02:25:40;;;;;;;30.65;12.35;;;10.50;99.90;;;;;;4997703;28;20030;-81
2023/04/16 02:28:16;;;;;;;35.78;12.45;;;10.50;99.90;;;;;;4965509;28;20042;-81
2023/04/16 02:30:44;;;;;;;29.52;12.43;;;10.60;99.90;;;;;;4981134;28;20510;-82
2023/04/16 02:33:11;;;;;;;35.63;12.82;;;10.60;99.90;;;;;;4980470;28;20037;-81
2023/04/16 02:35:38;;;;;;;34.90;13.00;;;10.50;99.90;;;;;;4996206;28;20105;-82
2023/04/16 02:38:04;;;;;;;37.05;12.05;;;10.50;99.90;;;;;;4981602;28;20030;-81
2023/04/16 02:40:30;;;;;;;36.65;12.48;;;10.60;99.90;;;;;;4999580;28;20033;-81
2023/04/16 02:42:56;;;;;;;35.88;12.25;;;10.70;99.90;;;;;;4998048;28;20034;-81
2023/04/16 02:45:22;;;;;;;31.00;12.07;;;10.60;99.90;;;;;;4981950;28;20025;-80
2023/04/16 02:47:49;;;;;;;34.70;12.27;;;10.60;99.90;;;;;;4996283;28;20069;-82
2023/04/16 02:50:15;;;;;;;35.15;11.85;;;10.60;99.90;;;;;;4998682;28;20683;-81
2023/04/16 02:52:41;;;;;;;37.72;13.27;;;10.60;99.90;;;;;;4999745;28;20029;-81
2023/04/16 02:55:08;;;;;;;43.72;13.32;;;10.60;99.90;;;;;;4979767;28;20041;-82
2023/04/16 02:57:33;;;;;;;34.42;12.48;;;10.70;99.90;;;;;;4997296;28;20351;-82
2023/04/16 02:59:59;;;;;;;32.65;12.60;;;10.60;99.90;;;;;;4981649;28;20076;-81
2023/04/16 03:02:26;;;;;;;34.25;12.82;;;10.60;99.90;;;;;;4995933;28;20018;-81
2023/04/16 03:04:52;;;;;;;30.83;13.18;;;10.60;99.90;;;;;;4997298;28;20045;-81
2023/04/16 03:07:18;;;;;;;39.25;12.82;;;10.60;99.90;;;;;;4980979;28;20037;-81
2023/04/16 03:09:43;;;;;;;37.67;13.63;;;10.60;99.90;;;;;;4998916;28;20037;-81
2023/04/16 03:12:09;;;;;;;39.90;12.95;;;10.60;99.90;;;;;;4987093;28;20171;-81
2023/04/16 03:14:35;;;;;;;29.42;12.20;;;10.70;99.90;;;;;;4990535;28;20026;-82
2023/04/16 03:17:03;;;;;;;36.33;13.65;;;10.70;99.90;;;;;;5003935;28;20116;-81
2023/04/16 03:19:29;;;;;;;37.30;13.45;;;10.70;99.90;;;;;;4983437;28;20080;-81
2023/04/16 03:21:55;;;;;;;35.35;13.50;;;10.70;99.90;;;;;;4998644;28;20022;-82
2023/04/16 03:24:26;;;;;;;37.25;14.60;;;10.70;99.90;;;;;;4997902;28;20021;-81
2023/04/16 03:26:52;;;;;;;42.77;14.07;;;10.70;99.90;;;;;;4999134;28;20136;-82
2023/04/16 03:29:18;;;;;;;36.05;14.38;;;10.70;99.90;;;;;;4980969;28;20774;-82
2023/04/16 03:31:43;;;;;;;39.92;15.00;;;10.60;99.90;;;;;;4997807;28;20037;-80
2023/04/16 03:34:09;;;;;;;40.88;14.52;;;10.70;99.90;;;;;;4996970;28;20029;-81
2023/04/16 03:36:37;;;;;;;30.13;14.38;;;10.70;99.90;;;;;;4980539;28;20029;-81
2023/04/16 03:39:03;;;;;;;43.78;16.48;;;10.70;99.90;;;;;;4981296;28;20029;-81
2023/04/16 03:41:28;;;;;;;36.97;14.48;;;10.70;99.90;;;;;;4994508;28;20547;-81
2023/04/16 03:43:54;;;;;;;40.95;15.45;;;10.80;99.90;;;;;;4995661;28;20099;-81
2023/04/16 03:46:19;;;;;;;39.13;14.63;;;10.80;99.90;;;;;;4979722;28;20029;-81
2023/04/16 03:48:45;;;;;;;35.45;13.95;;;10.70;99.90;;;;;;4979631;28;20493;-81
2023/04/16 03:51:13;;;;;;;48.30;15.45;;;10.70;99.90;;;;;;4998081;28;20033;-81
2023/04/16 03:53:39;;;;;;;41.10;14.32;;;10.80;99.90;;;;;;4997985;28;20022;-81
2023/04/16 03:56:04;;;;;;;36.72;15.55;;;10.70;99.90;;;;;;4979251;28;20040;-82
2023/04/16 03:58:30;;;;;;;42.80;15.20;;;10.80;99.90;;;;;;4997569;28;20032;-81
2023/04/16 04:00:58;;;;;;;38.50;14.70;;;10.80;99.90;;;;;;4978766;28;20117;-81
2023/04/16 04:03:24;;;;;;;36.83;15.30;;;10.80;99.90;;;;;;4995426;28;20018;-82
2023/04/16 04:05:52;;;;;;;42.85;15.25;;;10.70;99.90;;;;;;4979393;28;20035;-80
2023/04/16 04:08:18;;;;;;;44.25;16.27;;;10.70;99.90;;;;;;4996114;28;20065;-81
2023/04/16 04:10:44;;;;;;;42.78;16.25;;;10.70;99.90;;;;;;4978446;28;20157;-81
2023/04/16 04:13:10;;;;;;;39.08;15.75;;;10.80;99.90;;;;;;4997044;28;20656;-80
2023/04/16 04:15:36;;;;;;;41.40;15.73;;;10.80;99.90;;;;;;4994745;28;20022;-81
2023/04/16 04:18:01;;;;;;;39.80;16.50;;;10.80;99.90;;;;;;4979387;28;20033;-82
2023/04/16 04:20:27;;;;;;;42.58;15.93;;;10.70;99.90;;;;;;4993863;28;20033;-81
2023/04/16 04:22:53;;;;;;;51.08;18.05;;;10.70;99.90;;;;;;4996938;28;20133;-82
2023/04/16 04:25:18;;;;;;;38.88;16.98;;;10.70;99.90;;;;;;4995575;28;20041;-81
2023/04/16 04:27:44;;;;;;;51.75;17.58;;;10.70;99.90;;;;;;4996251;28;20041;-81
2023/04/16 04:30:10;;;;;;;40.72;17.77;;;10.70;99.90;;;;;;4979900;28;20802;-81
2023/04/16 04:32:36;;;;;;;43.30;16.48;;;10.70;99.90;;;;;;4977782;28;20454;-82
2023/04/16 04:35:02;;;;;;;41.22;18.15;;;10.70;99.90;;;;;;4978862;28;20058;-81
2023/04/16 04:37:28;;;;;;;45.38;17.23;;;10.80;99.90;;;;;;4980151;28;20061;-81
2023/04/16 04:39:54;;;;;;;43.92;17.55;;;10.70;99.90;;;;;;4992345;28;20097;-81
2023/04/16 04:42:20;;;;;;;39.30;16.83;;;10.70;99.90;;;;;;4980582;28;20457;-82
2023/04/16 04:44:46;;;;;;;39.15;17.45;;;10.70;99.90;;;;;;4995151;28;20100;-82
2023/04/16 04:47:13;;;;;;;42.47;17.10;;;10.70;99.90;;;;;;4979295;28;20034;-81
2023/04/16 04:49:39;;;;;;;42.13;17.25;;;10.70;99.90;;;;;;4979575;28;20054;-81
2023/04/16 04:52:05;;;;;;;41.88;17.13;;;10.70;99.90;;;;;;4994161;28;20070;-82
2023/04/16 04:54:31;;;;;;;42.42;18.27;;;10.80;99.90;;;;;;4996272;28;21153;-81
2023/04/16 04:56:57;;;;;;;43.10;16.58;;;10.80;99.90;;;;;;4979192;28;20026;-81
2023/04/16 04:59:23;;;;;;;43.42;17.67;;;10.70;99.90;;;;;;4994751;28;20393;-81
2023/04/16 05:01:49;;;;;;;47.40;18.08;;;10.70;99.90;;;;;;4997682;28;20026;-83
2023/04/16 05:04:15;;;;;;;41.95;17.13;;;10.80;99.90;;;;;;4973109;28;20090;-81
2023/04/16 05:06:41;;;;;;;39.22;17.75;;;10.70;99.90;;;;;;4975042;28;20537;-81
2023/04/16 05:09:10;;;;;;;38.97;16.30;;;10.70;99.90;;;;;;4982326;28;20058;-81
2023/04/16 05:11:40;;;;;;;40.95;17.05;;;10.80;99.90;;;;;;4995078;28;20105;-81
2023/04/16 05:14:06;;;;;;;42.20;16.77;;;10.80;99.90;;;;;;4992697;28;20033;-81
2023/04/16 05:16:34;;;;;;;52.00;18.73;;;10.80;99.90;;;;;;4983273;28;20037;-82
2023/04/16 05:19:00;;;;;;;37.13;16.90;;;10.90;99.90;;;;;;4991616;28;20018;-82
2023/04/16 05:21:25;;;;;;;41.30;17.48;;;10.90;99.90;;;;;;4994576;28;20052;-82
2023/04/16 05:23:51;;;;;;;46.10;17.33;;;10.90;99.90;;;;;;4982255;28;21339;-83
2023/04/16 05:26:17;;;;;;;42.38;18.40;;;10.90;99.90;;;;;;4992141;28;20485;-81
2023/04/16 05:28:42;;;;;;;49.80;18.13;;;10.90;99.90;;;;;;4995292;28;20608;-81
2023/04/16 05:31:10;;;;;;;40.92;17.80;;;10.90;99.90;;;;;;4976349;28;20543;-82
2023/04/16 05:33:36;;;;;;;43.83;18.90;;;10.90;99.90;;;;;;4998168;28;20493;-83
2023/04/16 05:36:02;;;;;;;43.85;18.13;;;10.80;99.90;;;;;;4997077;28;20030;-82
2023/04/16 05:38:27;;;;;;;52.55;19.40;;;10.80;99.90;;;;;;4993624;28;20352;-82
2023/04/16 05:40:54;;;;;;;38.33;17.65;;;10.90;99.90;;;;;;4993021;28;20073;-82
2023/04/16 05:43:20;;;;;;;52.20;18.45;;;10.90;99.90;;;;;;4994548;28;20026;-82
2023/04/16 05:45:46;;;;;;;48.80;19.33;;;10.90;99.90;;;;;;4973170;28;20029;-82
2023/04/16 05:48:12;;;;;;;46.75;18.80;;;10.90;99.90;;;;;;4982689;28;20069;-82
2023/04/16 05:50:38;;;;;;;49.58;17.77;;;11.00;99.90;;;;;;4992997;28;20447;-82
2023/04/16 05:53:06;;;;;;;48.60;18.92;;;10.90;99.90;;;;;;4973163;28;20026;-81
2023/04/16 05:55:32;;;;;;;50.63;18.30;;;11.00;99.90;;;;;;4990986;28;20037;-81
2023/04/16 05:57:58;;;;;;;42.67;17.88;;;10.90;99.90;;;;;;4990266;28;20057;-82
2023/04/16 06:00:23;;;;;;;46.25;18.40;;;11.00;99.90;;;;;;4979586;28;20022;-81
2023/04/16 06:02:49;;;;;;;48.22;18.17;;;11.00;99.90;;;;;;4992610;28;20047;-82
2023/04/16 06:05:15;;;;;;;47.92;17.75;;;11.00;99.90;;;;;;4981759;28;20060;-80
2023/04/16 06:07:41;;;;;;;45.47;18.20;;;11.10;99.90;;;;;;4991406;28;20086;-81
2023/04/16 06:10:07;;;;;;;47.30;17.80;;;11.10;99.90;;;;;;4990514;28;20032;-81
2023/04/16 06:12:33;;;;;;;47.80;18.60;;;11.10;99.90;;;;;;4988296;28;20764;-81
2023/04/16 06:15:02;;;;;;;42.67;18.85;;;11.30;99.90;;;;;;4991617;28;20685;-81
2023/04/16 06:17:28;;;;;;;41.17;18.38;;;11.20;99.90;;;;;;4981551;28;20030;-80
2023/04/16 06:19:53;;;;;;;47.40;19.40;;;11.30;99.90;;;;;;4987531;28;20030;-81
2023/04/16 06:22:19;;;;;;;43.63;19.10;;;11.30;99.90;;;;;;4975405;28;21087;-81
2023/04/16 06:24:45;;;;;;;43.60;19.10;;;11.40;99.90;;;;;;4977075;28;20030;-81
2023/04/16 06:27:10;;;;;;;41.28;19.00;;;11.30;99.90;;;;;;4987676;28;20037;-80
2023/04/16 06:29:36;;;;;;;47.30;18.95;;;11.30;99.90;;;;;;4991750;28;20486;-80
2023/04/16 06:32:02;;;;;;;41.72;18.65;;;11.30;99.90;;;;;;4970931;28;20417;-81
2023/04/16 06:34:28;;;;;;;45.47;19.45;;;11.40;99.90;;;;;;4994016;28;20026;-81
2023/04/16 06:36:54;;;;;;;47.92;19.40;;;11.40;99.90;;;;;;4994884;28;20076;-80
2023/04/16 06:39:20;;;;;;;58.35;19.25;;;11.40;99.90;;;;;;4982861;28;20026;-80
2023/04/16 06:41:47;;;;;;;50.05;19.85;;;11.50;99.90;;;;;;4995228;28;20394;-81
2023/04/16 06:44:13;;;;;;;43.47;17.65;;;11.50;99.90;;;;;;4984599;28;20531;-81
2023/04/16 06:46:39;;;;;;;42.65;18.67;;;11.40;99.90;;;;;;4996019;28;20544;-80
2023/04/16 06:49:07;;;;;;;43.78;18.70;;;11.40;99.90;;;;;;4995926;28;20019;-80
2023/04/16 06:51:33;;;;;;;47.58;19.40;;;11.60;99.90;;;;;;4989546;28;20479;-79
2023/04/16 06:53:59;;;;;;;43.20;18.73;;;11.60;99.90;;;;;;4979293;28;20030;-81
2023/04/16 06:56:25;;;;;;;51.63;20.38;;;11.60;99.90;;;;;;4995301;28;20026;-81
2023/04/16 06:58:50;;;;;;;45.80;20.17;;;11.60;99.90;;;;;;4983184;28;20033;-81
2023/04/16 07:01:17;;;;;;;51.75;21.08;;;11.70;99.90;;;;;;4995090;28;20026;-80
2023/04/16 07:03:42;;;;;;;47.72;20.05;;;11.70;99.90;;;;;;4985360;28;20022;-80
2023/04/16 07:06:10;;;;;;;47.58;19.38;;;11.80;99.90;;;;;;4992229;28;20489;-81
2023/04/16 07:08:36;;;;;;;46.22;19.73;;;11.90;99.90;;;;;;4995575;28;20286;-81
2023/04/16 07:11:01;;;;;;;42.92;20.10;;;12.00;99.90;;;;;;4982942;28;20385;-81
2023/04/16 07:13:27;;;;;;;45.38;20.90;;;12.20;99.90;;;;;;4997469;28;20022;-81
2023/04/16 07:15:53;;;;;;;47.33;21.33;;;12.40;99.90;;;;;;4979761;28;20121;-81
2023/04/16 07:18:19;;;;;;;41.83;19.88;;;12.30;99.90;;;;;;4979294;28;20407;-81
2023/04/16 07:20:44;;;;;;;49.00;20.38;;;12.30;99.90;;;;;;4995397;28;20069;-80
2023/04/16 07:23:10;;;;;;;46.25;19.95;;;12.40;99.90;;;;;;4980823;28;20125;-81
2023/04/16 07:25:36;;;;;;;49.53;21.48;;;12.40;99.90;;;;;;4994627;28;20867;-81
2023/04/16 07:28:02;;;;;;;45.92;21.98;;;12.40;99.90;;;;;;4983737;28;20046;-81
2023/04/16 07:30:32;;;;;;;48.90;21.42;;;12.50;99.90;;;;;;4993775;28;20703;-81
2023/04/16 07:33:04;;;;;;;47.15;20.00;;;12.30;99.90;;;;;;4993171;28;20109;-80
2023/04/16 07:35:30;;;;;;;48.88;19.92;;;12.40;99.90;;;;;;4996248;28;20481;-81
2023/04/16 07:37:56;;;;;;;44.67;20.05;;;12.50;99.90;;;;;;4994307;28;20030;-81
2023/04/16 07:40:23;;;;;;;43.28;20.85;;;12.40;99.90;;;;;;4996410;28;20042;-81
2023/04/16 07:42:49;;;;;;;47.42;20.20;;;12.40;99.90;;;;;;4995750;28;20022;-81
2023/04/16 07:45:15;;;;;;;46.40;20.55;;;12.50;99.90;;;;;;4980433;28;20208;-81
2023/04/16 07:47:40;;;;;;;43.78;19.90;;;12.70;99.90;;;;;;4992594;28;20039;-80
2023/04/16 07:50:06;;;;;;;44.95;20.17;;;12.80;99.90;;;;;;4995985;28;20373;-81
2023/04/16 07:52:32;;;;;;;42.67;20.95;;;13.10;99.90;;;;;;4977589;28;20034;-80
2023/04/16 07:54:57;;;;;;;44.25;19.52;;;13.30;99.90;;;;;;4983170;28;20475;-81
2023/04/16 07:57:23;;;;;;;53.25;21.38;;;13.40;99.90;;;;;;4992958;28;20029;-80
2023/04/16 07:59:49;;;;;;;54.17;20.60;;;13.50;99.90;;;;;;4995943;28;20527;-81
2023/04/16 08:02:18;;;;;;;46.25;20.60;;;13.40;99.90;;;;;;4989799;28;20038;-81
2023/04/16 08:04:44;;;;;;;52.17;21.13;;;13.40;99.90;;;;;;4998516;28;20442;-81
2023/04/16 08:07:09;;;;;;;44.33;19.67;;;13.50;99.90;;;;;;4995913;28;20075;-82
2023/04/16 08:09:35;;;;;;;44.38;20.65;;;13.70;99.90;;;;;;4972274;28;20054;-81
2023/04/16 08:12:02;;;;;;;44.08;19.92;;;14.00;99.90;;;;;;4979166;28;20068;-81
2023/04/16 08:14:28;;;;;;;44.10;19.30;;;14.20;99.90;;;;;;4998061;28;20636;-81
2023/04/16 08:16:53;;;;;;;47.97;22.55;;;14.30;99.90;;;;;;4995997;28;20116;-88
2023/04/16 08:19:19;;;;;;;37.60;18.27;;;14.20;99.90;;;;;;4984115;28;20026;-81
2023/04/16 08:21:46;;;;;;;34.75;18.00;;;14.10;99.90;;;;;;4999867;28;20065;-80
2023/04/16 08:24:11;;;;;;;37.40;18.88;;;13.90;99.90;;;;;;5000164;28;20030;-80
2023/04/16 08:26:37;;;;;;;42.50;18.52;;;14.20;99.90;;;;;;4981566;28;20037;-81
2023/04/16 08:29:03;;;;;;;40.72;19.13;;;14.20;99.90;;;;;;4982135;28;20412;-83
2023/04/16 08:31:28;;;;;;;40.55;19.00;;;14.40;99.90;;;;;;4993927;28;20057;-82
2023/04/16 08:33:54;;;;;;;38.83;18.60;;;14.70;99.90;;;;;;4984970;28;20110;-81
2023/04/16 08:36:20;;;;;;;39.60;18.85;;;14.70;99.90;;;;;;4996916;28;20040;-81
2023/04/16 08:38:45;;;;;;;50.17;22.63;;;14.70;99.90;;;;;;4993828;28;20021;-83
2023/04/16 08:41:12;;;;;;;42.00;19.05;;;14.60;99.90;;;;;;4993975;28;20038;-81
2023/04/16 08:43:43;;;;;;;41.35;18.92;;;14.40;99.90;;;;;;4981664;28;20537;-81
2023/04/16 08:46:11;;;;;;;38.33;19.85;;;14.30;99.90;;;;;;4981115;28;20126;-81
2023/04/16 08:48:37;;;;;;;38.20;19.45;;;14.20;99.90;;;;;;4981348;28;20038;-82
2023/04/16 08:51:08;;;;;;;45.15;19.42;;;14.30;99.90;;;;;;4976073;28;20025;-81
2023/04/16 08:53:50;;;;;;;39.63;18.98;;;14.50;99.90;;;;;;4987695;28;20021;-80
2023/04/16 08:56:20;;;;;;;36.17;17.83;;;14.70;99.90;;;;;;4984148;28;20140;-81
2023/04/16 08:58:47;;;;;;;43.22;19.27;;;14.90;99.90;;;;;;4982966;28;20030;-80
2023/04/16 09:01:14;;;;;;;38.17;18.60;;;14.90;99.90;;;;;;4975143;28;20113;-81
2023/04/16 09:03:40;;;;;;;35.28;17.70;;;14.90;99.90;;;;;;4978820;28;20030;-81
2023/04/16 09:06:06;;;;;;;38.33;18.60;;;15.00;99.90;;;;;;4978247;28;20076;-81
2023/04/16 09:08:34;;;;;;;32.85;18.58;;;14.80;99.90;;;;;;4994357;28;20074;-81
2023/04/16 09:11:00;;;;;;;34.53;18.50;;;14.70;99.90;;;;;;4994038;28;20525;-81
2023/04/16 09:13:26;;;;;;;76.72;32.90;;;14.80;99.90;;;;;;4994891;28;20021;-95
2023/04/16 09:15:53;;;;;;;37.60;16.88;;;15.00;99.90;;;;;;5043902;23;20107;-95
2023/04/16 09:18:20;;;;;;;41.13;18.65;;;15.40;99.90;;;;;;5184283;22;20041;-96
2023/04/16 09:20:47;;;;;;;42.13;18.08;;;15.50;99.90;;;;;;5023475;28;20025;-96
2023/04/16 09:23:13;;;;;;;34.88;17.42;;;15.70;99.90;;;;;;5000363;28;20328;-81
2023/04/16 09:25:38;;;;;;;31.00;17.40;;;16.00;99.90;;;;;;4997519;28;20044;-81
2023/04/16 09:28:04;;;;;;;29.55;17.15;;;16.20;99.90;;;;;;4994429;28;20034;-82
2023/04/16 09:30:30;;;;;;;32.42;16.88;;;16.20;99.90;;;;;;5002134;28;20089;-84
2023/04/16 09:33:34;;;;;;;33.30;16.75;;;16.20;99.90;;;;;;4996822;28;20022;-81
2023/04/16 09:36:00;;;;;;;27.67;17.13;;;16.40;99.90;;;;;;4975831;28;20066;-81
2023/04/16 09:38:48;;;;;;;28.40;16.08;;;16.30;99.90;;;;;;4974027;28;20799;-82
2023/04/16 09:41:17;;;;;;;45.95;18.10;;;16.60;99.90;;;;;;4966100;28;20030;-82
2023/04/16 09:43:53;;;;;;;31.00;16.83;;;16.60;99.90;;;;;;4976726;28;20528;-84
2023/04/16 09:46:19;;;;;;;32.28;17.67;;;16.50;99.90;;;;;;4961088;28;20193;-81
2023/04/16 09:48:54;;;;;;;29.20;16.77;;;16.50;99.90;;;;;;4957777;28;20133;-81
2023/04/16 09:51:19;;;;;;;32.78;17.27;;;16.70;99.90;;;;;;4977560;28;20034;-81
2023/04/16 09:53:45;;;;;;;31.42;17.02;;;16.90;99.90;;;;;;4975729;28;20094;-82
2023/04/16 09:56:11;;;;;;;28.67;16.63;;;17.10;99.90;;;;;;4976145;28;20023;-82
2023/04/16 09:58:37;;;;;;;28.77;16.95;;;17.50;99.90;;;;;;4974874;28;20453;-82
2023/04/16 10:01:06;;;;;;;28.90;16.10;;;17.70;99.90;;;;;;4977625;28;20037;-83
2023/04/16 10:03:33;;;;;;;29.45;16.45;;;17.50;99.90;;;;;;4960431;28;20080;-81
2023/04/16 10:06:05;;;;;;;31.15;16.60;;;17.70;99.90;;;;;;4965899;28;20092;-84
2023/04/16 10:08:34;;;;;;;29.20;16.75;;;17.60;99.90;;;;;;4994157;28;20054;-81
2023/04/16 10:11:02;;;;;;;27.65;16.13;;;17.80;99.90;;;;;;4997285;28;20118;-83
2023/04/16 10:13:29;;;;;;;28.67;15.85;;;18.30;99.90;;;;;;4993398;28;20401;-85
2023/04/16 10:15:56;;;;;;;32.20;16.40;;;18.80;99.90;;;;;;5008484;28;21399;-81
2023/04/16 10:18:22;;;;;;;27.45;16.60;;;19.50;99.90;;;;;;4993336;28;20558;-81
2023/04/16 10:20:49;;;;;;;22.92;15.13;;;19.50;99.90;;;;;;4998598;28;20875;-80
2023/04/16 10:23:15;;;;;;;21.75;14.38;;;19.80;99.90;;;;;;4994138;28;20067;-80
2023/04/16 10:25:43;;;;;;;27.20;14.27;;;20.30;99.90;;;;;;4992300;28;20040;-82
2023/04/16 10:28:09;;;;;;;21.13;13.57;;;20.50;99.90;;;;;;4991639;28;20465;-83
2023/04/16 10:30:36;;;;;;;33.10;15.35;;;20.90;99.90;;;;;;4997586;28;20037;-83
2023/04/16 10:33:03;;;;;;;27.60;15.57;;;20.40;98.90;;;;;;4998801;28;20032;-81
2023/04/16 10:35:30;;;;;;;26.23;15.63;;;19.60;99.30;;;;;;4995989;28;20015;-80
2023/04/16 10:37:56;;;;;;;26.30;14.43;;;19.40;99.90;;;;;;5000781;28;20030;-80
2023/04/16 10:40:24;;;;;;;23.20;14.68;;;19.10;99.90;;;;;;5003042;28;20506;-84
2023/04/16 10:43:05;;;;;;;23.92;14.07;;;18.90;99.90;;;;;;5004168;28;20609;-82
2023/04/16 10:45:36;;;;;;;25.88;15.15;;;19.00;99.90;;;;;;4993838;28;20042;-80
2023/04/16 10:48:08;;;;;;;25.13;14.55;;;19.00;99.90;;;;;;4986116;28;20125;-81
2023/04/16 10:50:35;;;;;;;23.40;14.90;;;18.60;99.90;;;;;;4994375;28;20085;-84
2023/04/16 10:53:18;;;;;;;23.70;13.77;;;18.00;99.90;;;;;;4999054;28;20025;-83
2023/04/16 10:55:56;;;;;;;;;;;17.70;99.90;;;;;;5013011;28;20132;-80
2023/04/16 10:58:29;;;;;;;25.52;13.88;;;17.50;99.90;;;;;;4994647;28;20273;-83
2023/04/16 11:00:59;;;;;;;25.08;14.45;;;17.30;99.90;;;;;;4994619;28;20504;-80
2023/04/16 11:03:25;;;;;;;26.27;15.20;;;17.30;99.90;;;;;;4991245;28;20041;-80
2023/04/16 11:05:51;;;;;;;25.55;15.30;;;17.40;99.90;;;;;;4993088;28;20030;-83
2023/04/16 11:08:16;;;;;;;27.65;14.45;;;17.40;99.90;;;;;;4992258;28;20053;-81
2023/04/16 11:10:42;;;;;;;28.58;14.45;;;17.40;99.90;;;;;;4995680;28;20101;-81
2023/04/16 11:13:11;;;;;;;22.17;13.60;;;17.40;99.90;;;;;;4991290;28;20634;-80
2023/04/16 11:15:37;;;;;;;22.10;13.80;;;17.30;99.90;;;;;;4992421;28;20026;-80
2023/04/16 11:18:03;;;;;;;26.08;14.00;;;17.20;99.90;;;;;;4992390;28;20492;-80
2023/04/16 11:20:28;;;;;;;23.02;15.32;;;17.00;99.90;;;;;;4992379;28;20528;-79
2023/04/16 11:22:55;;;;;;;27.10;16.15;;;16.80;99.90;;;;;;4997462;28;20105;-82
2023/04/16 11:25:28;;;;;;;27.58;16.20;;;16.60;99.90;;;;;;4997637;28;20034;-81
2023/04/16 11:27:54;;;;;;;25.90;16.00;;;16.60;99.90;;;;;;4990236;28;20056;-83
2023/04/16 11:30:45;;;;;;;32.78;16.00;;;16.60;99.90;;;;;;5009364;28;20092;-85
2023/04/16 11:33:11;;;;;;;27.77;15.48;;;16.60;99.90;;;;;;4987934;28;20045;-86
2023/04/16 11:35:42;;;;;;;28.90;15.80;;;16.90;99.90;;;;;;5009121;28;20022;-86
2023/04/16 11:38:07;;;;;;;26.95;16.15;;;17.00;99.90;;;;;;4993289;28;20085;-83
2023/04/16 11:40:34;;;;;;;26.05;15.48;;;17.30;99.90;;;;;;4997006;28;20528;-84
2023/04/16 11:43:12;;;;;;;21.40;14.07;;;17.30;99.90;;;;;;5010638;28;20014;-86
2023/04/16 11:45:59;;;;;;;30.90;15.18;;;17.50;99.90;;;;;;4987807;28;20034;-86
2023/04/16 11:49:01;;;;;;;27.00;14.85;;;17.70;99.90;;;;;;5007975;28;20190;-85
2023/04/16 11:51:28;;;;;;;24.63;14.65;;;18.20;99.90;;;;;;5006557;28;20032;-82
2023/04/16 11:53:55;;;;;;;22.15;14.18;;;18.30;99.90;;;;;;5128294;23;20045;-84
2023/04/16 11:56:28;;;;;;;21.48;14.20;;;18.80;99.90;;;;;;4997308;28;20569;-86
2023/04/16 11:59:17;;;;;;;24.95;14.57;;;19.40;99.50;;;;;;5001317;28;20026;-86
2023/04/16 12:01:50;;;;;;;29.60;14.07;;;19.60;98.50;;;;;;4988634;28;20033;-83
2023/04/16 12:04:19;;;;;;;18.75;12.88;;;19.70;98.50;;;;;;5001072;28;20053;-83
2023/04/16 12:07:03;;;;;;;25.75;13.35;;;19.70;97.50;;;;;;4983291;28;20442;-85
2023/04/16 12:09:29;;;;;;;27.55;14.57;;;19.70;96.50;;;;;;4980187;28;20022;-83
2023/04/16 12:11:55;;;;;;;21.77;14.00;;;19.60;97.10;;;;;;4981503;28;20137;-86
2023/04/16 12:14:24;;;;;;;24.45;13.70;;;19.70;97.10;;;;;;4983271;28;20516;-85
2023/04/16 12:16:50;;;;;;;21.20;14.75;;;19.70;97.40;;;;;;4978688;28;20363;-84
2023/04/16 12:19:17;;;;;;;23.13;13.65;;;19.70;97.90;;;;;;4982692;28;20069;-82
2023/04/16 12:21:45;;;;;;;24.55;14.00;;;19.80;97.10;;;;;;4996813;28;20270;-84
2023/04/16 12:24:13;;;;;;;21.73;15.13;;;19.90;97.70;;;;;;4984001;28;20636;-86
2023/04/16 12:26:40;;;;;;;28.83;14.70;;;20.20;96.90;;;;;;4984263;28;20958;-86
2023/04/16 12:29:23;;;;;;;20.75;14.27;;;20.30;96.40;;;;;;4989495;28;20494;-83